createdAt,value
2023-05-18T00:00:49.381Z,101126.78
2023-05-18T00:03:21.065Z,101134.59
2023-05-18T00:05:49.433Z,101135.91
2023-05-18T00:08:16.629Z,101141.91
2023-05-18T00:10:44.171Z,101155.19
2023-05-18T00:13:11.490Z,101147.69
2023-05-18T00:15:39.149Z,101148.97
2023-05-18T00:18:07.041Z,101171.56
2023-05-18T00:20:34.865Z,101174.03
2023-05-18T00:23:02.605Z,101173.41
2023-05-18T00:25:30.331Z,101166.75
2023-05-18T00:27:57.750Z,101169.00
2023-05-18T00:30:31.013Z,101173.19
2023-05-18T00:32:58.333Z,101179.94
2023-05-18T00:35:26.151Z,101177.78
2023-05-18T00:37:53.590Z,101179.69
2023-05-18T00:40:22.522Z,101183.56
2023-05-18T00:42:51.803Z,101195.75
2023-05-18T00:45:19.502Z,101194.34
2023-05-18T00:47:47.460Z,101188.13
2023-05-18T00:50:15.330Z,101195.84
2023-05-18T00:52:43.925Z,101184.59
2023-05-18T00:55:12.685Z,101185.56
2023-05-18T00:57:44.635Z,101194.34
2023-05-18T01:00:14.072Z,101182.66
2023-05-18T01:02:45.545Z,101203.97
2023-05-18T01:05:13.448Z,101195.41
2023-05-18T01:07:44.690Z,101198.03
2023-05-18T01:10:15.366Z,101197.09
2023-05-18T01:12:53.678Z,101194.81
2023-05-18T01:15:54.524Z,101191.84
2023-05-18T01:18:31.828Z,101192.81
2023-05-18T01:21:11.269Z,101195.84
2023-05-18T01:23:56.799Z,101190.28
2023-05-18T01:26:30.263Z,101197.16
2023-05-18T01:29:01.549Z,101203.78
2023-05-18T01:31:29.490Z,101201.63
2023-05-18T01:33:56.892Z,101205.81
2023-05-18T01:36:24.469Z,101214.03
2023-05-18T01:38:55.272Z,101205.72
2023-05-18T01:41:25.098Z,101204.22
2023-05-18T01:44:12.543Z,101210.19
2023-05-18T01:47:01.825Z,101224.19
2023-05-18T01:49:38.191Z,101215.31
2023-05-18T01:52:21.369Z,101216.22
2023-05-18T01:54:52.430Z,101208.91
2023-05-18T01:57:23.918Z,101213.84
2023-05-18T01:59:52.164Z,101197.03
2023-05-18T02:02:19.871Z,101200.03
2023-05-18T02:04:47.458Z,101216.41
2023-05-18T02:07:15.001Z,101224.75
2023-05-18T02:09:44.385Z,101221.56
2023-05-18T02:12:12.214Z,101217.59
2023-05-18T02:14:39.527Z,101214.25
2023-05-18T02:17:07.306Z,101218.25
2023-05-18T02:19:38.448Z,101217.59
2023-05-18T02:22:07.160Z,101232.22
2023-05-18T02:24:35.030Z,101226.75
2023-05-18T02:27:05.627Z,101236.78
2023-05-18T02:29:32.909Z,101229.69
2023-05-18T02:32:00.614Z,101234.56
2023-05-18T02:34:32.114Z,101229.88
2023-05-18T02:37:03.761Z,101224.34
2023-05-18T02:39:31.320Z,101223.22
2023-05-18T02:41:58.891Z,101227.56
2023-05-18T02:44:26.228Z,101240.59
2023-05-18T02:46:53.804Z,101238.69
2023-05-18T02:49:21.146Z,101245.56
2023-05-18T02:51:48.776Z,101238.69
2023-05-18T02:54:16.089Z,101244.44
2023-05-18T02:56:44.562Z,101253.78
2023-05-18T02:59:28.183Z,101260.44
2023-05-18T03:01:55.981Z,101248.03
2023-05-18T03:04:26.284Z,101254.56
2023-05-18T03:06:57.434Z,101259.41
2023-05-18T03:09:25.794Z,101261.31
2023-05-18T03:11:55.009Z,101263.31
2023-05-18T03:14:22.311Z,101253.00
2023-05-18T03:16:54.397Z,101269.34
2023-05-18T03:19:24.073Z,101260.97
2023-05-18T03:21:51.953Z,101258.31
2023-05-18T03:24:20.449Z,101265.31
2023-05-18T03:26:49.992Z,101279.16
2023-05-18T03:29:17.421Z,101277.97
2023-05-18T03:31:45.314Z,101278.44
2023-05-18T03:34:13.691Z,101286.56
2023-05-18T03:36:42.585Z,101283.19
2023-05-18T03:39:10.618Z,101282.31
2023-05-18T03:41:38.639Z,101291.56
2023-05-18T03:44:06.208Z,101285.38
2023-05-18T03:46:34.068Z,101292.41
2023-05-18T03:49:03.391Z,101297.50
2023-05-18T03:51:37.037Z,101303.09
2023-05-18T03:54:04.794Z,101296.16
2023-05-18T03:56:32.513Z,101292.78
2023-05-18T03:59:00.241Z,101302.81
2023-05-18T04:01:30.404Z,101311.75
2023-05-18T04:03:58.254Z,101314.81
2023-05-18T04:06:26.911Z,101311.75
2023-05-18T04:08:54.992Z,101312.84
2023-05-18T04:11:22.722Z,101326.78
2023-05-18T04:13:50.953Z,101321.75
2023-05-18T04:16:19.703Z,101305.13
2023-05-18T04:18:47.196Z,101320.19
2023-05-18T04:21:16.176Z,101317.28
2023-05-18T04:23:45.923Z,101321.06
2023-05-18T04:26:20.014Z,101322.75
2023-05-18T04:28:47.536Z,101306.09
2023-05-18T04:31:15.103Z,101324.03
2023-05-18T04:33:42.564Z,101319.78
2023-05-18T04:36:10.378Z,101323.91
2023-05-18T04:38:38.480Z,101332.72
2023-05-18T04:41:07.859Z,101332.72
2023-05-18T04:43:36.698Z,101335.00
2023-05-18T04:46:04.456Z,101336.81
2023-05-18T04:48:33.570Z,101335.16
2023-05-18T04:51:04.945Z,101340.28
2023-05-18T04:53:33.699Z,101339.94
2023-05-18T04:56:02.052Z,101350.03
2023-05-18T04:58:30.683Z,101342.16
2023-05-18T05:00:58.580Z,101348.22
2023-05-18T05:03:26.220Z,101355.00
2023-05-18T05:05:53.930Z,101353.06
2023-05-18T05:08:21.270Z,101358.03
2023-05-18T05:10:48.768Z,101361.31
2023-05-18T05:13:16.064Z,101360.69
2023-05-18T05:15:43.617Z,101364.00
2023-05-18T05:18:10.938Z,101376.44
2023-05-18T05:20:38.634Z,101391.63
2023-05-18T05:23:06.028Z,101385.84
2023-05-18T05:25:33.764Z,101389.53
2023-05-18T05:28:01.631Z,101385.72
2023-05-18T05:30:30.005Z,101393.56
2023-05-18T05:32:57.666Z,101392.28
2023-05-18T05:35:26.046Z,101400.00
2023-05-18T05:37:53.498Z,101399.66
2023-05-18T05:40:21.822Z,101404.28
2023-05-18T05:42:50.494Z,101406.09
2023-05-18T05:45:18.323Z,101410.25
2023-05-18T05:47:51.139Z,101413.13
2023-05-18T05:50:20.701Z,101413.38
2023-05-18T05:52:49.992Z,101417.53
2023-05-18T05:55:18.399Z,101413.34
2023-05-18T05:57:46.023Z,101418.53
2023-05-18T06:00:14.074Z,101424.03
2023-05-18T06:02:58.979Z,101417.03
2023-05-18T06:05:38.128Z,101421.84
2023-05-18T06:08:09.366Z,101427.06
2023-05-18T06:10:39.338Z,101415.66
2023-05-18T06:13:07.523Z,101424.78
2023-05-18T06:15:42.258Z,101424.78
2023-05-18T06:18:11.493Z,101443.28
2023-05-18T06:20:40.505Z,101434.72
2023-05-18T06:23:07.818Z,101438.91
2023-05-18T06:25:53.835Z,101448.91
2023-05-18T06:28:34.702Z,101446.75
2023-05-18T06:31:22.676Z,101437.06
2023-05-18T06:33:53.241Z,101449.06
2023-05-18T06:36:21.113Z,101447.09
2023-05-18T06:38:48.564Z,101452.84
2023-05-18T06:41:16.208Z,101452.75
2023-05-18T06:43:43.561Z,101460.97
2023-05-18T06:46:23.588Z,101451.59
2023-05-18T06:48:57.870Z,101465.34
2023-05-18T06:51:25.764Z,101471.03
2023-05-18T06:53:54.991Z,101466.88
2023-05-18T06:56:23.627Z,101464.25
2023-05-18T06:58:52.304Z,101474.09
2023-05-18T07:01:19.887Z,101476.19
2023-05-18T07:03:47.472Z,101473.97
2023-05-18T07:06:15.149Z,101474.06
2023-05-18T07:08:42.530Z,101470.38
2023-05-18T07:11:10.112Z,101485.69
2023-05-18T07:13:37.363Z,101479.78
2023-05-18T07:16:05.255Z,101480.47
2023-05-18T07:18:34.100Z,101483.44
2023-05-18T07:21:01.663Z,101482.28
2023-05-18T07:23:29.084Z,101488.53
2023-05-18T07:25:57.797Z,101478.28
2023-05-18T07:28:25.186Z,101492.63
2023-05-18T07:30:52.765Z,101488.16
2023-05-18T07:33:20.146Z,101497.53
2023-05-18T07:35:47.747Z,101504.03
2023-05-18T07:38:15.130Z,101486.31
2023-05-18T07:40:42.670Z,101501.44
2023-05-18T07:43:10.500Z,101494.22
2023-05-18T07:45:38.096Z,101498.16
2023-05-18T07:48:05.696Z,101498.72
2023-05-18T07:50:34.804Z,101500.94
2023-05-18T07:53:02.050Z,101501.81
2023-05-18T07:55:29.920Z,101512.66
2023-05-18T07:57:57.421Z,101506.34
2023-05-18T08:00:25.128Z,101503.50
2023-05-18T08:02:53.094Z,101510.31
2023-05-18T08:05:22.569Z,101506.78
2023-05-18T08:07:49.930Z,101518.09
2023-05-18T08:10:17.619Z,101506.66
2023-05-18T08:12:44.878Z,101507.91
2023-05-18T08:15:12.479Z,101516.44
2023-05-18T08:17:40.030Z,101521.72
2023-05-18T08:20:08.910Z,101522.84
2023-05-18T08:22:36.443Z,101517.00
2023-05-18T08:25:04.315Z,101513.03
2023-05-18T08:27:31.892Z,101512.25
2023-05-18T08:29:59.454Z,101519.25
2023-05-18T08:32:26.905Z,101515.13
2023-05-18T08:34:54.468Z,101522.41
2023-05-18T08:37:22.264Z,101519.72
2023-05-18T08:39:49.791Z,101525.72
2023-05-18T08:42:24.491Z,101524.00
2023-05-18T08:45:36.191Z,101529.41
2023-05-18T08:48:04.297Z,101528.69
2023-05-18T08:50:33.176Z,101539.66
2023-05-18T08:53:06.780Z,101516.81
2023-05-18T08:55:37.035Z,101531.84
2023-05-18T08:58:07.570Z,101529.59
2023-05-18T09:00:36.172Z,101539.53
2023-05-18T09:03:05.637Z,101542.44
2023-05-18T09:05:33.697Z,101543.22
2023-05-18T09:08:01.686Z,101531.91
2023-05-18T09:10:29.755Z,101530.69
2023-05-18T09:12:58.003Z,101532.84
2023-05-18T09:15:26.310Z,101526.31
2023-05-18T09:17:53.869Z,101528.88
2023-05-18T09:20:22.182Z,101522.53
2023-05-18T09:22:51.597Z,101532.47
2023-05-18T09:25:19.453Z,101528.31
2023-05-18T09:27:48.448Z,101529.53
2023-05-18T09:30:16.196Z,101527.81
2023-05-18T09:32:47.392Z,101517.31
2023-05-18T09:35:15.767Z,101533.72
2023-05-18T09:37:43.551Z,101521.63
2023-05-18T09:40:11.399Z,101532.00
2023-05-18T09:42:43.963Z,101529.53
2023-05-18T09:45:26.862Z,101530.00
2023-05-18T09:47:54.634Z,101521.91
2023-05-18T09:50:23.588Z,101524.59
2023-05-18T09:52:51.227Z,101530.50
2023-05-18T09:55:20.303Z,101529.13
2023-05-18T09:57:50.143Z,101533.88
2023-05-18T10:00:20.777Z,101521.38
2023-05-18T10:02:52.545Z,101535.72
2023-05-18T10:05:21.373Z,101522.88
2023-05-18T10:07:48.763Z,101523.66
2023-05-18T10:10:21.203Z,101526.38
2023-05-18T10:12:51.038Z,101529.59
2023-05-18T10:15:21.199Z,101521.72
2023-05-18T10:17:51.224Z,101534.53
2023-05-18T10:20:20.514Z,101531.53
2023-05-18T10:22:49.161Z,101522.31
2023-05-18T10:25:20.125Z,101536.16
2023-05-18T10:27:49.976Z,101536.81
2023-05-18T10:30:20.358Z,101534.81
2023-05-18T10:32:48.526Z,101522.53
2023-05-18T10:35:17.106Z,101548.13
2023-05-18T10:37:50.301Z,101535.56
2023-05-18T10:40:19.886Z,101532.19
2023-05-18T10:42:49.112Z,101523.19
2023-05-18T10:45:16.848Z,101537.56
2023-05-18T10:47:44.716Z,101541.44
2023-05-18T10:50:14.157Z,101529.78
2023-05-18T10:52:41.817Z,101531.91
2023-05-18T10:55:09.644Z,101535.31
2023-05-18T10:57:43.652Z,101518.00
2023-05-18T11:00:11.889Z,101522.88
2023-05-18T11:02:42.714Z,101526.94
2023-05-18T11:05:11.223Z,101533.00
2023-05-18T11:07:39.045Z,101516.56
2023-05-18T11:10:11.605Z,101519.91
2023-05-18T11:12:40.631Z,101518.75
2023-05-18T11:15:08.670Z,101516.88
2023-05-18T11:17:36.105Z,101540.97
2023-05-18T11:20:09.652Z,101533.81
2023-05-18T11:22:51.481Z,101531.38
2023-05-18T11:25:28.356Z,101543.28
2023-05-18T11:28:02.214Z,101526.81
2023-05-18T11:30:33.916Z,101532.91
2023-05-18T11:33:32.960Z,101518.91
2023-05-18T11:36:11.654Z,101522.88
2023-05-18T11:39:02.410Z,101539.19
2023-05-18T11:41:35.860Z,101538.81
2023-05-18T11:44:15.257Z,101541.38
2023-05-18T11:47:10.979Z,101529.44
2023-05-18T11:49:46.701Z,101532.78
2023-05-18T11:52:22.386Z,101521.28
2023-05-18T11:54:52.425Z,101535.03
2023-05-18T11:57:24.625Z,101540.13
2023-05-18T11:59:56.860Z,101539.41
2023-05-18T12:02:26.959Z,101531.38
2023-05-18T12:04:57.141Z,101532.59
2023-05-18T12:07:28.434Z,101535.16
2023-05-18T12:10:00.583Z,101559.06
2023-05-18T12:12:28.471Z,101530.59
2023-05-18T12:15:01.389Z,101548.69
2023-05-18T12:17:41.949Z,101533.03
2023-05-18T12:20:11.992Z,101543.69
2023-05-18T12:22:41.407Z,101551.84
2023-05-18T12:25:09.641Z,101552.75
2023-05-18T12:27:41.474Z,101547.16
2023-05-18T12:30:16.368Z,101554.25
2023-05-18T12:32:57.693Z,101560.22
2023-05-18T12:35:30.284Z,101557.38
2023-05-18T12:38:02.962Z,101560.53
2023-05-18T12:40:44.766Z,101544.13
2023-05-18T12:43:13.246Z,101552.53
2023-05-18T12:45:41.234Z,101560.53
2023-05-18T12:48:11.179Z,101570.66
2023-05-18T12:50:50.945Z,101559.94
2023-05-18T12:53:18.958Z,101563.88
2023-05-18T12:55:46.198Z,101558.31
2023-05-18T12:58:17.694Z,101564.34
2023-05-18T13:00:47.196Z,101555.91
2023-05-18T13:03:17.341Z,101565.66
2023-05-18T13:05:46.387Z,101570.50
2023-05-18T13:08:19.995Z,101564.47
2023-05-18T13:10:50.999Z,101557.94
2023-05-18T13:13:23.033Z,101555.81
2023-05-18T13:15:51.354Z,101556.75
2023-05-18T13:18:18.867Z,101557.75
2023-05-18T13:20:51.842Z,101552.75
2023-05-18T13:23:21.828Z,101556.25
2023-05-18T13:25:49.811Z,101550.72
2023-05-18T13:28:19.279Z,101559.38
2023-05-18T13:30:48.748Z,101547.84
2023-05-18T13:33:18.138Z,101551.78
2023-05-18T13:35:45.881Z,101559.53
2023-05-18T13:38:14.510Z,101559.69
2023-05-18T13:40:42.954Z,101550.00
2023-05-18T13:43:12.777Z,101563.28
2023-05-18T13:45:42.070Z,101564.03
2023-05-18T13:48:10.835Z,101552.59
2023-05-18T13:50:39.280Z,101570.50
2023-05-18T13:53:07.169Z,101564.81
2023-05-18T13:55:35.195Z,101557.69
2023-05-18T13:58:02.822Z,101561.41
2023-05-18T14:00:33.569Z,101564.81
2023-05-18T14:03:01.692Z,101556.53
2023-05-18T14:05:29.182Z,101556.69
2023-05-18T14:07:56.951Z,101557.09
2023-05-18T14:10:24.168Z,101561.84
2023-05-18T14:12:51.730Z,101564.50
2023-05-18T14:15:18.886Z,101566.50
2023-05-18T14:17:46.375Z,101564.38
2023-05-18T14:20:13.757Z,101555.41
2023-05-18T14:22:41.545Z,101561.50
2023-05-18T14:25:09.089Z,101560.63
2023-05-18T14:27:36.798Z,101566.31
2023-05-18T14:30:06.264Z,101553.50
2023-05-18T14:32:33.960Z,101561.38
2023-05-18T14:35:01.154Z,101566.94
2023-05-18T14:37:28.820Z,101558.34
2023-05-18T14:39:56.209Z,101553.34
2023-05-18T14:42:23.736Z,101554.09
2023-05-18T14:44:51.095Z,101552.72
2023-05-18T14:47:18.534Z,101553.97
2023-05-18T14:49:46.473Z,101556.19
2023-05-18T14:52:14.444Z,101560.19
2023-05-18T14:54:42.424Z,101564.66
2023-05-18T14:57:10.006Z,101559.22
2023-05-18T14:59:37.212Z,101557.31
2023-05-18T15:02:05.026Z,101559.81
2023-05-18T15:04:32.398Z,101558.13
2023-05-18T15:06:59.942Z,101551.44
2023-05-18T15:09:27.208Z,101557.47
2023-05-18T15:11:54.749Z,101551.41
2023-05-18T15:14:22.029Z,101559.09
2023-05-18T15:16:49.552Z,101566.66
2023-05-18T15:19:16.763Z,101557.25
2023-05-18T15:21:45.049Z,101565.25
2023-05-18T15:24:12.339Z,101564.22
2023-05-18T15:26:40.077Z,101553.22
2023-05-18T15:29:07.224Z,101555.25
2023-05-18T15:31:36.979Z,101561.38
2023-05-18T15:34:04.238Z,101564.09
2023-05-18T15:36:32.401Z,101561.81
2023-05-18T15:39:00.086Z,101556.56
2023-05-18T15:41:33.056Z,101549.69
2023-05-18T15:44:01.920Z,101541.06
2023-05-18T15:46:32.112Z,101551.53
2023-05-18T15:48:59.421Z,101554.72
2023-05-18T15:51:26.930Z,101560.09
2023-05-18T15:53:54.160Z,101544.88
2023-05-18T15:56:22.081Z,101550.94
2023-05-18T15:58:49.391Z,101544.53
2023-05-18T16:01:16.890Z,101558.34
2023-05-18T16:03:44.322Z,101547.34
2023-05-18T16:06:12.152Z,101548.94
2023-05-18T16:08:39.341Z,101553.47
2023-05-18T16:11:07.215Z,101553.41
2023-05-18T16:13:34.458Z,101550.16
2023-05-18T16:16:03.698Z,101557.34
2023-05-18T16:18:31.022Z,101552.47
2023-05-18T16:20:58.556Z,101552.91
2023-05-18T16:23:25.913Z,101549.69
2023-05-18T16:25:53.457Z,101561.81
2023-05-18T16:28:20.664Z,101552.91
2023-05-18T16:30:48.230Z,101559.50
2023-05-18T16:33:16.928Z,101555.47
2023-05-18T16:35:44.400Z,101550.16
2023-05-18T16:38:13.313Z,101556.63
2023-05-18T16:40:40.821Z,101563.09
2023-05-18T16:43:08.033Z,101563.16
2023-05-18T16:45:35.598Z,101554.44
2023-05-18T16:48:03.887Z,101553.16
2023-05-18T16:50:31.827Z,101570.94
2023-05-18T16:52:59.308Z,101567.63
2023-05-18T16:55:27.158Z,101567.19
2023-05-18T16:57:54.438Z,101564.28
2023-05-18T17:00:22.196Z,101581.97
2023-05-18T17:02:49.545Z,101574.47
2023-05-18T17:05:21.514Z,101565.31
2023-05-18T17:07:52.499Z,101575.81
2023-05-18T17:10:20.035Z,101576.66
2023-05-18T17:12:47.300Z,101574.94
2023-05-18T17:15:15.050Z,101570.75
2023-05-18T17:17:43.946Z,101567.16
2023-05-18T17:20:11.915Z,101575.16
2023-05-18T17:22:39.256Z,101568.19
2023-05-18T17:25:08.512Z,101560.16
2023-05-18T17:27:35.803Z,101568.47
2023-05-18T17:30:03.487Z,101579.50
2023-05-18T17:32:30.869Z,101582.00
2023-05-18T17:34:58.501Z,101590.44
2023-05-18T17:37:26.031Z,101585.50
2023-05-18T17:39:53.840Z,101581.06
2023-05-18T17:42:21.123Z,101583.53
2023-05-18T17:44:48.644Z,101581.22
2023-05-18T17:47:17.512Z,101586.81
2023-05-18T17:49:45.082Z,101588.63
2023-05-18T17:52:12.589Z,101584.34
2023-05-18T17:54:40.139Z,101583.75
2023-05-18T17:57:07.372Z,101588.16
2023-05-18T17:59:37.125Z,101588.41
2023-05-18T18:02:05.362Z,101585.91
2023-05-18T18:04:32.967Z,101588.69
2023-05-18T18:07:01.843Z,101591.00
2023-05-18T18:09:29.466Z,101590.38
2023-05-18T18:11:58.090Z,101591.09
2023-05-18T18:14:25.799Z,101586.13
2023-05-18T18:16:53.212Z,101593.06
2023-05-18T18:19:20.949Z,101599.69
2023-05-18T18:21:48.300Z,101594.06
2023-05-18T18:24:15.996Z,101595.09
2023-05-18T18:26:43.279Z,101582.31
2023-05-18T18:29:10.906Z,101598.75
2023-05-18T18:31:38.280Z,101602.16
2023-05-18T18:34:05.954Z,101597.31
2023-05-18T18:36:33.722Z,101598.38
2023-05-18T18:39:01.388Z,101599.38
2023-05-18T18:41:28.949Z,101600.34
2023-05-18T18:43:57.324Z,101604.66
2023-05-18T18:46:24.697Z,101602.44
2023-05-18T18:48:52.317Z,101599.38
2023-05-18T18:51:19.644Z,101599.25
2023-05-18T18:53:47.229Z,101598.97
2023-05-18T18:56:14.560Z,101609.13
2023-05-18T18:58:42.147Z,101610.72
2023-05-18T19:01:09.497Z,101594.28
2023-05-18T19:03:37.171Z,101612.94
2023-05-18T19:06:04.654Z,101614.53
2023-05-18T19:08:32.298Z,101601.28
2023-05-18T19:10:59.979Z,101615.09
2023-05-18T19:13:27.591Z,101611.03
2023-05-18T19:15:54.926Z,101610.66
2023-05-18T19:18:22.590Z,101605.38
2023-05-18T19:20:50.050Z,101605.97
2023-05-18T19:23:17.689Z,101617.16
2023-05-18T19:25:45.182Z,101602.41
2023-05-18T19:28:12.737Z,101603.50
2023-05-18T19:30:40.084Z,101604.63
2023-05-18T19:33:07.744Z,101605.00
2023-05-18T19:35:35.240Z,101608.94
2023-05-18T19:38:02.790Z,101617.56
2023-05-18T19:40:30.162Z,101619.13
2023-05-18T19:42:59.808Z,101604.94
2023-05-18T19:45:27.476Z,101602.50
2023-05-18T19:47:55.618Z,101610.50
2023-05-18T19:50:22.946Z,101607.19
2023-05-18T19:52:50.723Z,101610.06
2023-05-18T19:55:18.346Z,101610.97
2023-05-18T19:57:45.931Z,101599.88
2023-05-18T20:00:13.892Z,101604.84
2023-05-18T20:02:41.520Z,101609.84
2023-05-18T20:05:12.735Z,101617.78
2023-05-18T20:07:41.133Z,101616.53
2023-05-18T20:10:08.467Z,101613.13
2023-05-18T20:12:36.080Z,101615.66
2023-05-18T20:15:04.249Z,101625.13
2023-05-18T20:17:31.965Z,101608.13
2023-05-18T20:20:00.156Z,101611.81
2023-05-18T20:22:28.130Z,101617.50
2023-05-18T20:24:55.570Z,101634.41
2023-05-18T20:27:23.168Z,101632.00
2023-05-18T20:29:50.407Z,101621.13
2023-05-18T20:32:17.952Z,101632.69
2023-05-18T20:34:45.445Z,101627.19
2023-05-18T20:37:14.235Z,101638.25
2023-05-18T20:39:42.790Z,101642.16
2023-05-18T20:42:12.922Z,101644.38
2023-05-18T20:44:40.292Z,101645.16
2023-05-18T20:47:08.670Z,101647.84
2023-05-18T20:49:35.968Z,101645.28
2023-05-18T20:52:03.635Z,101653.53
2023-05-18T20:54:31.047Z,101645.19
2023-05-18T20:56:58.680Z,101654.63
2023-05-18T20:59:26.404Z,101655.69
2023-05-18T21:01:54.243Z,101664.09
2023-05-18T21:04:21.949Z,101662.16
2023-05-18T21:06:49.659Z,101661.16
2023-05-18T21:09:17.778Z,101668.50
2023-05-18T21:11:45.383Z,101659.97
2023-05-18T21:14:12.664Z,101660.31
2023-05-18T21:16:40.603Z,101660.00
2023-05-18T21:19:08.106Z,101664.19
2023-05-18T21:21:36.023Z,101662.25
2023-05-18T21:24:03.473Z,101664.94
2023-05-18T21:26:31.109Z,101661.06
2023-05-18T21:28:58.425Z,101667.63
2023-05-18T21:31:26.364Z,101661.28
2023-05-18T21:33:53.710Z,101672.44
2023-05-18T21:36:34.454Z,101666.66
2023-05-18T21:39:05.892Z,101658.25
2023-05-18T21:41:35.393Z,101665.03
2023-05-18T21:44:03.374Z,101665.34
2023-05-18T21:46:31.262Z,101667.66
2023-05-18T21:48:58.710Z,101671.59
2023-05-18T21:51:26.393Z,101666.03
2023-05-18T21:53:53.623Z,101673.66
2023-05-18T21:56:21.577Z,101669.38
2023-05-18T21:58:48.805Z,101684.84
2023-05-18T22:01:19.786Z,101677.63
2023-05-18T22:03:48.277Z,101675.13
2023-05-18T22:06:16.636Z,101681.47
2023-05-18T22:08:44.483Z,101679.41
2023-05-18T22:11:12.872Z,101672.41
2023-05-18T22:13:40.699Z,101674.06
2023-05-18T22:16:08.401Z,101671.25
2023-05-18T22:18:35.673Z,101673.84
2023-05-18T22:21:03.218Z,101675.19
2023-05-18T22:23:30.567Z,101663.72
2023-05-18T22:25:58.211Z,101672.94
2023-05-18T22:28:25.476Z,101672.22
2023-05-18T22:30:53.159Z,101680.06
2023-05-18T22:33:21.395Z,101661.56
2023-05-18T22:35:49.610Z,101676.66
2023-05-18T22:38:17.944Z,101672.06
2023-05-18T22:40:45.684Z,101660.03
2023-05-18T22:43:13.102Z,101670.03
2023-05-18T22:45:40.967Z,101669.88
2023-05-18T22:48:08.359Z,101665.03
2023-05-18T22:50:36.025Z,101654.41
2023-05-18T22:53:04.888Z,101657.44
2023-05-18T22:55:32.888Z,101661.41
2023-05-18T22:58:00.133Z,101667.44
2023-05-18T23:00:27.661Z,101671.41
2023-05-18T23:02:55.143Z,101670.88
2023-05-18T23:05:22.920Z,101659.16
2023-05-18T23:07:50.258Z,101670.75
2023-05-18T23:10:18.616Z,101664.28
2023-05-18T23:12:46.340Z,101648.72
2023-05-18T23:15:14.073Z,101649.91
2023-05-18T23:17:46.297Z,101654.41
2023-05-18T23:20:13.848Z,101666.13
2023-05-18T23:22:41.146Z,101660.59
2023-05-18T23:25:10.057Z,101663.91
2023-05-18T23:27:37.609Z,101649.44
2023-05-18T23:30:05.761Z,101654.88
2023-05-18T23:32:33.533Z,101664.72
2023-05-18T23:35:01.487Z,101661.91
2023-05-18T23:37:31.577Z,101666.97
2023-05-18T23:40:02.827Z,101662.06
2023-05-18T23:42:31.571Z,101672.41
2023-05-18T23:44:59.542Z,101671.28
2023-05-18T23:47:27.121Z,101653.03
2023-05-18T23:49:55.049Z,101673.88
2023-05-18T23:52:25.148Z,101654.47
2023-05-18T23:54:55.732Z,101665.28
2023-05-18T23:57:24.079Z,101656.66
2023-05-18T23:59:51.885Z,101662.19
